Terminal Aerodrome Forecast
Issued by NWS Charleston, WV

Current Version | Previous Version | Graphics & Text | Print | Product List | Glossary On
Versions: 1 2 3 4 5 6 7 8 9 10 11 12 13 14 15 16 17 18 19 20 21 22 23
925
FTUS41 KRLX 220529
TAFCRW
TAF
KCRW 220529Z 2206/2306 00000KT P6SM VCTS BKN050CB
      TEMPO 2206/2207 29015G30KT 1SM +TSRA SCT010 OVC025CB
     FM220700 00000KT 5SM BR BKN100
     FM220900 00000KT 1/2SM FG BKN001
     FM221100 00000KT 3/4SM BR SCT010
     FM221300 22004KT P6SM SCT040
     FM221800 22007KT P6SM -SHRA VCTS BKN050CB=

USA.gov is the U.S. government's official web portal to all federal, state and local government web resources and services.